sensor_id;sensor_type;location;lat;lon;timestamp;pressure;altitude;pressure_sealevel;temperature;humidity
31183;BME280;17813;0.000;0.000;2023-03-13T00:45:39;98688.88;;;7.47;78.59
31183;BME280;17813;0.000;0.000;2023-03-13T00:48:06;98689.53;;;7.51;78.86
31183;BME280;17813;0.000;0.000;2023-03-13T00:50:33;98686.03;;;7.50;78.37
31183;BME280;17813;0.000;0.000;2023-03-13T00:53:00;98686.13;;;7.49;78.51
31183;BME280;17813;0.000;0.000;2023-03-13T00:55:26;98687.06;;;7.48;78.64
31183;BME280;17813;0.000;0.000;2023-03-13T00:57:53;98680.19;;;7.45;78.28
31183;BME280;17813;0.000;0.000;2023-03-13T01:00:21;98671.72;;;7.40;79.04
31183;BME280;17813;0.000;0.000;2023-03-13T01:02:48;98675.50;;;7.36;79.11
31183;BME280;17813;0.000;0.000;2023-03-13T01:05:15;98673.13;;;7.31;79.39
31183;BME280;17813;0.000;0.000;2023-03-13T01:07:42;98674.84;;;7.32;79.32
31183;BME280;17813;0.000;0.000;2023-03-13T01:10:09;98682.66;;;7.34;79.17
31183;BME280;17813;0.000;0.000;2023-03-13T01:12:36;98672.75;;;7.37;78.80
31183;BME280;17813;0.000;0.000;2023-03-13T01:15:03;98671.91;;;7.37;79.18
31183;BME280;17813;0.000;0.000;2023-03-13T01:17:30;98673.03;;;7.33;79.16
31183;BME280;17813;0.000;0.000;2023-03-13T01:19:57;98666.81;;;7.34;79.32
31183;BME280;17813;0.000;0.000;2023-03-13T01:22:24;98657.59;;;7.41;79.47
31183;BME280;17813;0.000;0.000;2023-03-13T01:24:55;98645.34;;;7.40;79.83
31183;BME280;17813;0.000;0.000;2023-03-13T01:27:22;98646.66;;;7.47;80.02
31183;BME280;17813;0.000;0.000;2023-03-13T01:29:49;98638.38;;;7.53;79.62
31183;BME280;17813;0.000;0.000;2023-03-13T01:32:16;98637.63;;;7.51;79.65
31183;BME280;17813;0.000;0.000;2023-03-13T01:34:43;98644.59;;;7.52;79.53
31183;BME280;17813;0.000;0.000;2023-03-13T01:37:10;98639.13;;;7.55;79.51
31183;BME280;17813;0.000;0.000;2023-03-13T01:39:36;98641.94;;;7.52;79.52
31183;BME280;17813;0.000;0.000;2023-03-13T01:42:04;98639.31;;;7.52;79.81
31183;BME280;17813;0.000;0.000;2023-03-13T01:44:49;98637.25;;;7.43;79.53
31183;BME280;17813;0.000;0.000;2023-03-13T01:47:17;98633.94;;;7.39;80.12
31183;BME280;17813;0.000;0.000;2023-03-13T01:49:47;98630.84;;;7.47;79.79
31183;BME280;17813;0.000;0.000;2023-03-13T01:52:25;98623.00;;;7.46;79.73
31183;BME280;17813;0.000;0.000;2023-03-13T01:55:04;98625.66;;;7.46;79.76
31183;BME280;17813;0.000;0.000;2023-03-13T01:57:36;98612.28;;;7.49;79.66
31183;BME280;17813;0.000;0.000;2023-03-13T02:00:13;98608.88;;;7.47;80.04
31183;BME280;17813;0.000;0.000;2023-03-13T02:02:50;98608.97;;;7.45;79.84
31183;BME280;17813;0.000;0.000;2023-03-13T02:05:20;98607.94;;;7.48;79.61
31183;BME280;17813;0.000;0.000;2023-03-13T02:08:25;98602.28;;;7.39;79.81
31183;BME280;17813;0.000;0.000;2023-03-13T02:13:50;98594.00;;;7.46;80.26
31183;BME280;17813;0.000;0.000;2023-03-13T02:16:18;98595.31;;;7.53;79.97
31183;BME280;17813;0.000;0.000;2023-03-13T02:18:45;98581.72;;;7.59;79.88
31183;BME280;17813;0.000;0.000;2023-03-13T02:24:20;98571.84;;;7.48;79.65
31183;BME280;17813;0.000;0.000;2023-03-13T02:26:48;98561.19;;;7.50;80.25
31183;BME280;17813;0.000;0.000;2023-03-13T02:29:15;98549.81;;;7.49;80.17
31183;BME280;17813;0.000;0.000;2023-03-13T02:31:46;98541.88;;;7.49;80.10
31183;BME280;17813;0.000;0.000;2023-03-13T02:34:18;98544.13;;;7.55;80.19
31183;BME280;17813;0.000;0.000;2023-03-13T02:36:49;98544.78;;;7.59;80.21
31183;BME280;17813;0.000;0.000;2023-03-13T02:39:20;98548.63;;;7.67;79.81
31183;BME280;17813;0.000;0.000;2023-03-13T02:41:48;98541.06;;;7.75;79.38
31183;BME280;17813;0.000;0.000;2023-03-13T02:44:17;98546.06;;;7.80;79.32
31183;BME280;17813;0.000;0.000;2023-03-13T02:46:49;98534.09;;;7.74;79.46
31183;BME280;17813;0.000;0.000;2023-03-13T02:49:26;98530.41;;;7.77;79.22
31183;BME280;17813;0.000;0.000;2023-03-13T02:51:58;98536.63;;;7.76;79.56
31183;BME280;17813;0.000;0.000;2023-03-13T02:54:33;98525.63;;;7.69;79.56
31183;BME280;17813;0.000;0.000;2023-03-13T02:57:03;98519.50;;;7.69;79.73
31183;BME280;17813;0.000;0.000;2023-03-13T02:59:31;98521.28;;;7.68;80.02
31183;BME280;17813;0.000;0.000;2023-03-13T03:01:58;98517.81;;;7.68;80.38
31183;BME280;17813;0.000;0.000;2023-03-13T03:04:26;98522.22;;;7.67;80.23
31183;BME280;17813;0.000;0.000;2023-03-13T03:06:53;98507.16;;;7.69;80.23
31183;BME280;17813;0.000;0.000;2023-03-13T03:09:21;98504.31;;;7.72;80.28
31183;BME280;17813;0.000;0.000;2023-03-13T03:11:49;98514.00;;;7.72;80.19
31183;BME280;17813;0.000;0.000;2023-03-13T03:14:16;98505.44;;;7.83;80.07
31183;BME280;17813;0.000;0.000;2023-03-13T03:16:43;98503.13;;;7.91;79.94
31183;BME280;17813;0.000;0.000;2023-03-13T03:19:10;98501.78;;;7.98;79.72
31183;BME280;17813;0.000;0.000;2023-03-13T03:21:37;98491.75;;;8.03;79.43
31183;BME280;17813;0.000;0.000;2023-03-13T03:24:05;98485.31;;;8.07;79.55
31183;BME280;17813;0.000;0.000;2023-03-13T03:26:33;98478.47;;;8.17;79.28
31183;BME280;17813;0.000;0.000;2023-03-13T03:29:00;98464.31;;;8.18;78.98
31183;BME280;17813;0.000;0.000;2023-03-13T03:31:28;98460.63;;;8.21;78.66
31183;BME280;17813;0.000;0.000;2023-03-13T03:33:56;98463.56;;;8.16;78.80
31183;BME280;17813;0.000;0.000;2023-03-13T03:36:24;98460.28;;;8.25;79.16
31183;BME280;17813;0.000;0.000;2023-03-13T03:38:53;98460.84;;;8.30;79.12
31183;BME280;17813;0.000;0.000;2023-03-13T03:41:21;98465.16;;;8.31;79.08
31183;BME280;17813;0.000;0.000;2023-03-13T03:43:50;98454.94;;;8.40;78.53
31183;BME280;17813;0.000;0.000;2023-03-13T05:47:02;98225.75;;;9.71;73.34
31183;BME280;17813;0.000;0.000;2023-03-13T05:49:29;98221.06;;;9.74;73.52
31183;BME280;17813;0.000;0.000;2023-03-13T05:51:56;98217.69;;;9.72;73.08
31183;BME280;17813;0.000;0.000;2023-03-13T05:54:23;98217.69;;;9.72;73.28
31183;BME280;17813;0.000;0.000;2023-03-13T05:56:51;98207.34;;;9.69;73.97
31183;BME280;17813;0.000;0.000;2023-03-13T05:59:23;98213.00;;;9.76;73.63
31183;BME280;17813;0.000;0.000;2023-03-13T06:01:54;98206.16;;;9.73;73.37
31183;BME280;17813;0.000;0.000;2023-03-13T06:04:21;98191.84;;;9.76;72.98
31183;BME280;17813;0.000;0.000;2023-03-13T06:06:48;98193.41;;;9.78;73.33
31183;BME280;17813;0.000;0.000;2023-03-13T06:09:15;98185.56;;;9.77;73.69
31183;BME280;17813;0.000;0.000;2023-03-13T06:11:43;98188.22;;;9.77;73.20
31183;BME280;17813;0.000;0.000;2023-03-13T06:14:10;98170.91;;;9.73;74.00
31183;BME280;17813;0.000;0.000;2023-03-13T06:16:37;98174.13;;;9.76;74.26
31183;BME280;17813;0.000;0.000;2023-03-13T06:19:04;98161.75;;;9.77;73.44
31183;BME280;17813;0.000;0.000;2023-03-13T06:21:31;98168.72;;;9.78;73.96
31183;BME280;17813;0.000;0.000;2023-03-13T06:23:58;98169.94;;;9.62;74.66
31183;BME280;17813;0.000;0.000;2023-03-13T06:26:25;98159.34;;;9.62;74.19
31183;BME280;17813;0.000;0.000;2023-03-13T06:28:53;98158.88;;;9.68;74.93
31183;BME280;17813;0.000;0.000;2023-03-13T06:31:20;98166.91;;;9.78;74.63
31183;BME280;17813;0.000;0.000;2023-03-13T06:33:48;98163.66;;;9.97;73.77
31183;BME280;17813;0.000;0.000;2023-03-13T06:39:46;98157.63;;;10.06;73.69
31183;BME280;17813;0.000;0.000;2023-03-13T06:42:16;98149.75;;;10.16;72.93
31183;BME280;17813;0.000;0.000;2023-03-13T06:44:52;98136.91;;;10.22;72.93
31183;BME280;17813;0.000;0.000;2023-03-13T06:47:23;98136.88;;;10.34;73.53
31183;BME280;17813;0.000;0.000;2023-03-13T06:49:50;98125.53;;;10.43;72.57
31183;BME280;17813;0.000;0.000;2023-03-13T06:52:17;98134.66;;;10.50;73.17
31183;BME280;17813;0.000;0.000;2023-03-13T06:54:44;98117.16;;;10.58;72.79
31183;BME280;17813;0.000;0.000;2023-03-13T06:57:11;98123.75;;;10.64;71.96
31183;BME280;17813;0.000;0.000;2023-03-13T06:59:38;98118.97;;;10.58;72.79
31183;BME280;17813;0.000;0.000;2023-03-13T07:02:05;98113.78;;;10.56;72.87
31183;BME280;17813;0.000;0.000;2023-03-13T07:04:35;98113.78;;;10.56;73.19
31183;BME280;17813;0.000;0.000;2023-03-13T07:07:03;98118.63;;;10.51;73.66
31183;BME280;17813;0.000;0.000;2023-03-13T07:09:37;98107.91;;;10.53;73.59
31183;BME280;17813;0.000;0.000;2023-03-13T07:12:05;98111.06;;;10.36;75.27
31183;BME280;17813;0.000;0.000;2023-03-13T07:14:39;98108.09;;;10.18;76.04
31183;BME280;17813;0.000;0.000;2023-03-13T07:17:43;98099.59;;;10.03;77.22
31183;BME280;17813;0.000;0.000;2023-03-13T07:20:19;98110.31;;;10.02;78.20
31183;BME280;17813;0.000;0.000;2023-03-13T07:22:53;98127.72;;;10.15;77.90
31183;BME280;17813;0.000;0.000;2023-03-13T07:25:21;98128.78;;;10.35;76.96
31183;BME280;17813;0.000;0.000;2023-03-13T07:27:50;98128.91;;;10.45;75.79
31183;BME280;17813;0.000;0.000;2023-03-13T07:30:19;98137.44;;;10.48;76.76
31183;BME280;17813;0.000;0.000;2023-03-13T07:32:46;98151.50;;;10.60;76.26
31183;BME280;17813;0.000;0.000;2023-03-13T07:35:16;98148.72;;;10.61;76.24
31183;BME280;17813;0.000;0.000;2023-03-13T07:37:56;98139.78;;;10.62;76.19
31183;BME280;17813;0.000;0.000;2023-03-13T07:40:26;98139.88;;;10.72;76.22
31183;BME280;17813;0.000;0.000;2023-03-13T07:46:07;98119.56;;;10.82;76.39
31183;BME280;17813;0.000;0.000;2023-03-13T11:50:36;98020.66;;;18.05;55.22
31183;BME280;17813;0.000;0.000;2023-03-13T11:56:40;98000.31;;;17.87;54.94
31183;BME280;17813;0.000;0.000;2023-03-13T11:59:44;97995.56;;;17.66;55.63
31183;BME280;17813;0.000;0.000;2023-03-13T12:02:25;97992.16;;;17.73;56.69
31183;BME280;17813;0.000;0.000;2023-03-13T12:04:55;97985.94;;;18.34;56.68
31183;BME280;17813;0.000;0.000;2023-03-13T12:07:31;97989.66;;;18.71;54.60
31183;BME280;17813;0.000;0.000;2023-03-13T12:21:03;97974.16;;;18.58;54.23
31183;BME280;17813;0.000;0.000;2023-03-13T12:26:43;97974.78;;;18.83;52.87
31183;BME280;17813;0.000;0.000;2023-03-13T12:32:08;97961.19;;;19.28;52.84
31183;BME280;17813;0.000;0.000;2023-03-13T12:35:05;97951.78;;;18.66;52.64
31183;BME280;17813;0.000;0.000;2023-03-13T12:37:47;97938.66;;;18.71;53.56
31183;BME280;17813;0.000;0.000;2023-03-13T12:40:37;97938.66;;;18.71;53.92
31183;BME280;17813;0.000;0.000;2023-03-13T12:43:48;97939.13;;;18.89;53.46
31183;BME280;17813;0.000;0.000;2023-03-13T12:46:34;97942.00;;;19.02;53.45
31183;BME280;17813;0.000;0.000;2023-03-13T12:49:28;97942.09;;;18.94;52.72
31183;BME280;17813;0.000;0.000;2023-03-13T12:57:54;97914.91;;;17.99;55.01
31183;BME280;17813;0.000;0.000;2023-03-13T13:00:30;97913.66;;;17.56;56.63
31183;BME280;17813;0.000;0.000;2023-03-13T13:05:36;97902.56;;;17.67;56.41
31183;BME280;17813;0.000;0.000;2023-03-13T13:08:03;97903.69;;;17.73;56.05
31183;BME280;17813;0.000;0.000;2023-03-13T13:10:31;97921.00;;;17.62;56.34
31183;BME280;17813;0.000;0.000;2023-03-13T13:13:30;97916.78;;;17.36;56.19
31183;BME280;17813;0.000;0.000;2023-03-13T13:16:12;97913.88;;;17.46;56.41
31183;BME280;17813;0.000;0.000;2023-03-13T13:18:41;97914.66;;;17.55;56.44
31183;BME280;17813;0.000;0.000;2023-03-13T13:23:45;97912.66;;;17.26;57.40
31183;BME280;17813;0.000;0.000;2023-03-13T13:36:58;97917.31;;;16.93;58.87
31183;BME280;17813;0.000;0.000;2023-03-13T13:39:45;97915.34;;;16.79;59.11
31183;BME280;17813;0.000;0.000;2023-03-13T13:47:28;97909.53;;;16.43;60.72
31183;BME280;17813;0.000;0.000;2023-03-13T13:50:36;97894.16;;;16.36;60.85
31183;BME280;17813;0.000;0.000;2023-03-13T13:53:28;97894.66;;;16.40;60.82
31183;BME280;17813;0.000;0.000;2023-03-13T13:55:57;97901.66;;;16.41;60.95
31183;BME280;17813;0.000;0.000;2023-03-13T13:58:27;97906.03;;;16.34;61.07
31183;BME280;17813;0.000;0.000;2023-03-13T14:01:05;97893.66;;;16.25;61.36
31183;BME280;17813;0.000;0.000;2023-03-13T14:03:40;97898.50;;;16.29;61.26
31183;BME280;17813;0.000;0.000;2023-03-13T14:08:45;97884.66;;;16.18;61.41
31183;BME280;17813;0.000;0.000;2023-03-13T14:11:32;97882.47;;;16.21;61.39
31183;BME280;17813;0.000;0.000;2023-03-13T14:14:22;97887.97;;;16.28;61.26
31183;BME280;17813;0.000;0.000;2023-03-13T14:16:51;97878.78;;;16.38;61.50
31183;BME280;17813;0.000;0.000;2023-03-13T14:19:40;97877.75;;;16.39;61.06
31183;BME280;17813;0.000;0.000;2023-03-13T14:22:10;97886.47;;;16.33;61.30
31183;BME280;17813;0.000;0.000;2023-03-13T14:24:40;97876.09;;;16.30;61.21
31183;BME280;17813;0.000;0.000;2023-03-13T14:27:18;97870.75;;;16.30;61.21
31183;BME280;17813;0.000;0.000;2023-03-13T14:30:06;97860.72;;;16.40;61.37
31183;BME280;17813;0.000;0.000;2023-03-13T14:32:36;97865.50;;;16.61;60.79
31183;BME280;17813;0.000;0.000;2023-03-13T14:35:09;97838.09;;;16.51;60.54
31183;BME280;17813;0.000;0.000;2023-03-13T14:37:41;97828.41;;;16.50;60.83
31183;BME280;17813;0.000;0.000;2023-03-13T14:42:59;97814.69;;;16.53;60.92
31183;BME280;17813;0.000;0.000;2023-03-13T14:45:34;97811.56;;;16.89;60.75
31183;BME280;17813;0.000;0.000;2023-03-13T14:50:34;97788.63;;;17.17;59.70
31183;BME280;17813;0.000;0.000;2023-03-13T14:53:12;97792.06;;;17.03;59.58
31183;BME280;17813;0.000;0.000;2023-03-13T14:55:42;97792.47;;;16.92;60.25
31183;BME280;17813;0.000;0.000;2023-03-13T14:58:30;97797.69;;;16.85;60.29
31183;BME280;17813;0.000;0.000;2023-03-13T15:05:32;97803.53;;;16.89;60.11
31183;BME280;17813;0.000;0.000;2023-03-13T15:07:59;97794.09;;;17.01;59.86
31183;BME280;17813;0.000;0.000;2023-03-13T15:10:34;97794.97;;;16.93;59.75
31183;BME280;17813;0.000;0.000;2023-03-13T15:13:33;97787.28;;;16.90;59.58
31183;BME280;17813;0.000;0.000;2023-03-13T15:16:15;97773.25;;;16.88;59.61
31183;BME280;17813;0.000;0.000;2023-03-13T15:18:53;97759.59;;;16.75;59.83
31183;BME280;17813;0.000;0.000;2023-03-13T15:24:13;97738.09;;;16.52;60.76
31183;BME280;17813;0.000;0.000;2023-03-13T15:26:41;97742.78;;;16.50;61.03
31183;BME280;17813;0.000;0.000;2023-03-13T15:29:09;97732.50;;;16.31;61.12
31183;BME280;17813;0.000;0.000;2023-03-13T15:31:36;97726.91;;;16.49;60.75
31183;BME280;17813;0.000;0.000;2023-03-13T15:34:12;97719.72;;;16.49;60.90
31183;BME280;17813;0.000;0.000;2023-03-13T15:36:40;97714.78;;;16.69;60.58
31183;BME280;17813;0.000;0.000;2023-03-13T15:39:18;97708.44;;;16.70;60.25
31183;BME280;17813;0.000;0.000;2023-03-13T15:41:47;97706.72;;;16.77;60.67
31183;BME280;17813;0.000;0.000;2023-03-13T15:44:26;97705.72;;;16.78;60.46
31183;BME280;17813;0.000;0.000;2023-03-13T15:46:58;97684.88;;;16.65;60.66
31183;BME280;17813;0.000;0.000;2023-03-13T15:49:24;97694.41;;;16.68;60.75
31183;BME280;17813;0.000;0.000;2023-03-13T15:51:52;97678.81;;;16.71;60.76
31183;BME280;17813;0.000;0.000;2023-03-13T15:54:19;97659.78;;;16.66;60.92
31183;BME280;17813;0.000;0.000;2023-03-13T15:56:46;97656.56;;;16.71;60.88
31183;BME280;17813;0.000;0.000;2023-03-13T15:59:14;97642.38;;;16.62;61.01
31183;BME280;17813;0.000;0.000;2023-03-13T16:01:42;97641.16;;;16.73;60.56
31183;BME280;17813;0.000;0.000;2023-03-13T16:04:11;97635.50;;;16.68;60.66
31183;BME280;17813;0.000;0.000;2023-03-13T16:06:38;97623.16;;;16.67;60.76
31183;BME280;17813;0.000;0.000;2023-03-13T16:09:06;97624.09;;;16.74;60.60
31183;BME280;17813;0.000;0.000;2023-03-13T16:11:33;97622.78;;;16.70;60.38
31183;BME280;17813;0.000;0.000;2023-03-13T16:14:00;97621.13;;;16.69;60.38
31183;BME280;17813;0.000;0.000;2023-03-13T16:16:30;97609.31;;;16.55;60.61
31183;BME280;17813;0.000;0.000;2023-03-13T16:19:00;97605.03;;;16.46;60.71
31183;BME280;17813;0.000;0.000;2023-03-13T16:21:33;97602.56;;;16.36;60.66
31183;BME280;17813;0.000;0.000;2023-03-13T16:24:02;97597.50;;;16.19;61.21
31183;BME280;17813;0.000;0.000;2023-03-13T16:26:30;97588.19;;;16.06;61.32
31183;BME280;17813;0.000;0.000;2023-03-13T16:29:02;97594.41;;;15.99;61.50
31183;BME280;17813;0.000;0.000;2023-03-13T16:31:34;97586.13;;;15.86;61.59
31183;BME280;17813;0.000;0.000;2023-03-13T16:34:03;97595.63;;;15.88;61.59
31183;BME280;17813;0.000;0.000;2023-03-13T16:36:32;97591.38;;;15.71;62.21
31183;BME280;17813;0.000;0.000;2023-03-13T16:39:09;97585.88;;;15.64;62.20
31183;BME280;17813;0.000;0.000;2023-03-13T16:41:37;97585.84;;;15.72;62.07
31183;BME280;17813;0.000;0.000;2023-03-13T16:44:04;97578.19;;;15.69;62.22
31183;BME280;17813;0.000;0.000;2023-03-13T16:46:38;97577.19;;;15.62;62.31
31183;BME280;17813;0.000;0.000;2023-03-13T16:49:08;97568.00;;;15.65;62.20
31183;BME280;17813;0.000;0.000;2023-03-13T16:51:38;97580.72;;;15.63;62.35
31183;BME280;17813;0.000;0.000;2023-03-13T16:54:05;97574.00;;;15.59;62.26
31183;BME280;17813;0.000;0.000;2023-03-13T16:56:34;97567.84;;;15.58;62.24
31183;BME280;17813;0.000;0.000;2023-03-13T16:59:11;97554.97;;;15.54;62.44
31183;BME280;17813;0.000;0.000;2023-03-13T17:01:38;97570.50;;;15.58;62.27
31183;BME280;17813;0.000;0.000;2023-03-13T17:04:05;97564.47;;;15.56;62.14
31183;BME280;17813;0.000;0.000;2023-03-13T17:06:40;97568.84;;;15.49;62.29
31183;BME280;17813;0.000;0.000;2023-03-13T17:09:12;97568.84;;;15.41;62.79
31183;BME280;17813;0.000;0.000;2023-03-13T17:11:41;97569.06;;;15.31;63.19
31183;BME280;17813;0.000;0.000;2023-03-13T17:14:08;97569.59;;;15.19;63.81
31183;BME280;17813;0.000;0.000;2023-03-13T17:16:42;97564.25;;;15.10;64.27
31183;BME280;17813;0.000;0.000;2023-03-13T17:19:17;97567.09;;;15.01;64.55
31183;BME280;17813;0.000;0.000;2023-03-13T17:21:50;97563.44;;;14.94;65.04
31183;BME280;17813;0.000;0.000;2023-03-13T17:24:19;97561.78;;;14.85;65.75
31183;BME280;17813;0.000;0.000;2023-03-13T17:26:47;97565.63;;;14.90;65.37
31183;BME280;17813;0.000;0.000;2023-03-13T17:29:16;97559.28;;;14.99;65.17
31183;BME280;17813;0.000;0.000;2023-03-13T17:31:44;97564.44;;;15.01;65.49
31183;BME280;17813;0.000;0.000;2023-03-13T17:34:12;97557.09;;;15.03;65.38
31183;BME280;17813;0.000;0.000;2023-03-13T17:36:39;97557.75;;;15.05;65.25
31183;BME280;17813;0.000;0.000;2023-03-13T17:39:09;97566.59;;;15.05;65.49
31183;BME280;17813;0.000;0.000;2023-03-13T17:41:38;97564.59;;;15.07;65.26
31183;BME280;17813;0.000;0.000;2023-03-13T17:44:15;97560.75;;;15.10;64.94
31183;BME280;17813;0.000;0.000;2023-03-13T17:46:51;97565.75;;;15.13;64.83
31183;BME280;17813;0.000;0.000;2023-03-13T17:49:18;97561.56;;;15.19;64.66
31183;BME280;17813;0.000;0.000;2023-03-13T17:51:46;97562.41;;;15.19;64.52
31183;BME280;17813;0.000;0.000;2023-03-13T17:54:15;97558.38;;;15.23;64.66
31183;BME280;17813;0.000;0.000;2023-03-13T17:56:44;97553.72;;;15.25;64.43
31183;BME280;17813;0.000;0.000;2023-03-13T17:59:16;97557.56;;;15.23;64.69
31183;BME280;17813;0.000;0.000;2023-03-13T18:01:44;97570.75;;;15.24;64.51
31183;BME280;17813;0.000;0.000;2023-03-13T18:04:24;97630.16;;;15.18;66.12
31183;BME280;17813;0.000;0.000;2023-03-13T18:06:51;97804.66;;;14.93;69.25
31183;BME280;17813;0.000;0.000;2023-03-13T18:09:20;97862.59;;;14.14;68.01
31183;BME280;17813;0.000;0.000;2023-03-13T18:11:48;97816.06;;;12.57;69.97
31183;BME280;17813;0.000;0.000;2023-03-13T18:14:16;97795.78;;;11.63;73.16
31183;BME280;17813;0.000;0.000;2023-03-13T18:16:44;97774.44;;;11.16;74.63
31183;BME280;17813;0.000;0.000;2023-03-13T18:19:24;97758.50;;;10.77;76.06
31183;BME280;17813;0.000;0.000;2023-03-13T18:21:53;97726.94;;;10.55;76.39
31183;BME280;17813;0.000;0.000;2023-03-13T18:24:21;97696.63;;;10.38;77.44
31183;BME280;17813;0.000;0.000;2023-03-13T18:26:51;97688.56;;;10.09;79.01
31183;BME280;17813;0.000;0.000;2023-03-13T18:29:20;97698.00;;;9.92;79.35
31183;BME280;17813;0.000;0.000;2023-03-13T18:31:56;97692.19;;;9.68;79.67
31183;BME280;17813;0.000;0.000;2023-03-13T18:34:24;97686.84;;;9.58;79.91
31183;BME280;17813;0.000;0.000;2023-03-13T18:36:53;97695.66;;;9.38;81.45
31183;BME280;17813;0.000;0.000;2023-03-13T18:39:20;97685.97;;;9.27;82.26
31183;BME280;17813;0.000;0.000;2023-03-13T18:41:49;97670.50;;;9.23;83.16
31183;BME280;17813;0.000;0.000;2023-03-13T18:44:19;97673.47;;;9.29;84.19
31183;BME280;17813;0.000;0.000;2023-03-13T18:46:49;97679.91;;;9.37;84.93
31183;BME280;17813;0.000;0.000;2023-03-13T18:49:21;97672.16;;;9.45;87.10
31183;BME280;17813;0.000;0.000;2023-03-13T18:51:51;97674.41;;;9.49;88.88
31183;BME280;17813;0.000;0.000;2023-03-13T18:54:19;97674.75;;;9.65;89.43
31183;BME280;17813;0.000;0.000;2023-03-13T18:56:47;97639.00;;;9.81;89.91
31183;BME280;17813;0.000;0.000;2023-03-13T18:59:21;97627.34;;;9.93;90.15
31183;BME280;17813;0.000;0.000;2023-03-13T19:01:48;97635.03;;;10.06;91.49
31183;BME280;17813;0.000;0.000;2023-03-13T19:04:17;97644.81;;;10.15;90.28
31183;BME280;17813;0.000;0.000;2023-03-13T19:06:45;97661.72;;;10.23;89.65
31183;BME280;17813;0.000;0.000;2023-03-13T19:09:20;97647.25;;;10.27;89.94
31183;BME280;17813;0.000;0.000;2023-03-13T19:11:48;97611.81;;;10.38;90.07
31183;BME280;17813;0.000;0.000;2023-03-13T19:14:16;97608.38;;;10.47;89.86
31183;BME280;17813;0.000;0.000;2023-03-13T19:16:48;97600.44;;;10.47;89.90
31183;BME280;17813;0.000;0.000;2023-03-13T19:19:18;97590.66;;;10.57;89.28
31183;BME280;17813;0.000;0.000;2023-03-13T19:21:47;97582.84;;;10.66;88.96
31183;BME280;17813;0.000;0.000;2023-03-13T19:24:14;97559.94;;;10.74;89.20
31183;BME280;17813;0.000;0.000;2023-03-13T19:26:46;97555.34;;;10.76;88.62
31183;BME280;17813;0.000;0.000;2023-03-13T19:29:21;97542.22;;;10.75;88.48
31183;BME280;17813;0.000;0.000;2023-03-13T19:31:49;97532.31;;;10.77;87.95
31183;BME280;17813;0.000;0.000;2023-03-13T19:34:16;97536.50;;;10.79;88.94
31183;BME280;17813;0.000;0.000;2023-03-13T19:36:46;97522.25;;;10.80;88.02
31183;BME280;17813;0.000;0.000;2023-03-13T19:39:19;97535.25;;;10.74;88.60
31183;BME280;17813;0.000;0.000;2023-03-13T19:41:50;97519.91;;;10.68;88.71
31183;BME280;17813;0.000;0.000;2023-03-13T19:44:20;97524.13;;;10.60;88.78
31183;BME280;17813;0.000;0.000;2023-03-13T19:46:48;97523.44;;;10.58;89.06
31183;BME280;17813;0.000;0.000;2023-03-13T19:49:19;97511.28;;;10.56;89.06
31183;BME280;17813;0.000;0.000;2023-03-13T19:51:47;97509.22;;;10.50;89.55
31183;BME280;17813;0.000;0.000;2023-03-13T19:54:15;97505.28;;;10.54;88.68
31183;BME280;17813;0.000;0.000;2023-03-13T19:56:43;97525.66;;;10.53;88.65
31183;BME280;17813;0.000;0.000;2023-03-13T19:59:19;97523.84;;;10.54;87.72
31183;BME280;17813;0.000;0.000;2023-03-13T20:01:46;97525.94;;;10.60;88.35
31183;BME280;17813;0.000;0.000;2023-03-13T20:04:16;97526.63;;;10.62;87.53
31183;BME280;17813;0.000;0.000;2023-03-13T20:06:43;97520.91;;;10.67;87.71
31183;BME280;17813;0.000;0.000;2023-03-13T20:09:14;97535.00;;;10.67;87.52
31183;BME280;17813;0.000;0.000;2023-03-13T20:11:42;97538.47;;;10.68;87.85
31183;BME280;17813;0.000;0.000;2023-03-13T20:14:09;97523.81;;;10.73;87.95
31183;BME280;17813;0.000;0.000;2023-03-13T20:16:37;97517.81;;;10.71;87.66
31183;BME280;17813;0.000;0.000;2023-03-13T20:19:08;97513.34;;;10.72;87.81
31183;BME280;17813;0.000;0.000;2023-03-13T20:21:37;97518.94;;;10.69;87.33
31183;BME280;17813;0.000;0.000;2023-03-13T20:24:09;97520.31;;;10.73;88.02
31183;BME280;17813;0.000;0.000;2023-03-13T20:26:41;97497.44;;;10.72;87.71
31183;BME280;17813;0.000;0.000;2023-03-13T20:29:08;97495.22;;;10.67;88.40
31183;BME280;17813;0.000;0.000;2023-03-13T20:31:35;97490.03;;;10.75;88.61
31183;BME280;17813;0.000;0.000;2023-03-13T20:34:02;97486.00;;;10.71;88.23
31183;BME280;17813;0.000;0.000;2023-03-13T20:36:29;97501.19;;;10.79;87.80
31183;BME280;17813;0.000;0.000;2023-03-13T20:38:56;97500.50;;;10.77;88.10
31183;BME280;17813;0.000;0.000;2023-03-13T20:41:23;97495.47;;;10.83;88.31
31183;BME280;17813;0.000;0.000;2023-03-13T20:43:54;97508.13;;;10.89;87.79
31183;BME280;17813;0.000;0.000;2023-03-13T20:46:21;97511.06;;;10.96;87.54
31183;BME280;17813;0.000;0.000;2023-03-13T20:48:48;97525.00;;;10.98;86.96
31183;BME280;17813;0.000;0.000;2023-03-13T20:51:15;97534.78;;;10.98;87.12
31183;BME280;17813;0.000;0.000;2023-03-13T20:53:43;97538.84;;;10.92;87.38
31183;BME280;17813;0.000;0.000;2023-03-13T20:56:11;97545.13;;;10.91;87.83
31183;BME280;17813;0.000;0.000;2023-03-13T20:58:37;97546.69;;;10.84;88.22
31183;BME280;17813;0.000;0.000;2023-03-13T21:01:05;97537.03;;;10.92;87.82
31183;BME280;17813;0.000;0.000;2023-03-13T21:03:33;97529.75;;;10.94;87.57
31183;BME280;17813;0.000;0.000;2023-03-13T21:06:11;97530.59;;;10.95;86.89
31183;BME280;17813;0.000;0.000;2023-03-13T21:08:40;97530.44;;;10.97;87.79
31183;BME280;17813;0.000;0.000;2023-03-13T21:11:21;97530.44;;;10.97;86.94
31183;BME280;17813;0.000;0.000;2023-03-13T21:13:49;97541.88;;;11.07;86.92
31183;BME280;17813;0.000;0.000;2023-03-13T21:16:17;97538.91;;;11.10;86.68
31183;BME280;17813;0.000;0.000;2023-03-13T21:18:46;97542.25;;;11.12;86.35
31183;BME280;17813;0.000;0.000;2023-03-13T21:21:16;97557.91;;;11.15;86.78
31183;BME280;17813;0.000;0.000;2023-03-13T21:23:45;97563.75;;;11.18;86.47
31183;BME280;17813;0.000;0.000;2023-03-13T21:26:13;97571.56;;;11.20;86.83
31183;BME280;17813;0.000;0.000;2023-03-13T21:28:41;97567.50;;;11.25;87.06
31183;BME280;17813;0.000;0.000;2023-03-13T21:31:13;97561.78;;;11.20;87.03
31183;BME280;17813;0.000;0.000;2023-03-13T21:33:48;97562.63;;;11.21;87.38
31183;BME280;17813;0.000;0.000;2023-03-13T21:36:17;97560.09;;;11.19;88.27
31183;BME280;17813;0.000;0.000;2023-03-13T21:38:50;97557.84;;;11.24;87.84